• Join FlightAware (Why Join?)
  • Login
  • US Flag 
05:04AM EDT


 

Airport Tracker/Info


-or-


 

Live Flight TrackerFlight Track Log ✈ ASQ5958 ✈ 07-Apr-2013 ✈ KCLT - KORD

Flight Track Log - Related Links

Times and Time Zones

All times are in EDT time to prevent confusion due to time zone crossing. See the ASQ5958 flight status page for this flight to view local times or setup timezone preferences in your user account.

Time Position Orientation Groundspeed Altitude Reporting Facility
EDT Latitude Longitude Course Direction KTS MPH feet Rate Location/Type
06:36AM 35.1981 -80.9644 229° Southwest 175 201 1,700  Level FAA TRACON SMA TRACON (SMA)
06:36AM 35.1864 -80.9811 229° Southwest 168 193 2,600 2,400 Climbing FAA TRACON SMA TRACON (SMA)
06:37AM 35.1767 -80.9944 228° Southwest 170 196 3,300 1,800 Climbing FAA TRACON SMA TRACON (SMA)
06:37AM 35.1717 -81.0100 249° West 183 211 3,800 2,100 Climbing FAA TRACON SMA TRACON (SMA)
06:37AM 35.1694 -81.0375 264° West 193 222 4,700 2,400 Climbing FAA TRACON SMA TRACON (SMA)
06:38AM 35.1692 -81.0581 269° West 196 226 5,400 1,800 Climbing FAA TRACON SMA TRACON (SMA)
06:38AM 35.1764 -81.0764 296° West 206 237 5,900 1,200 Climbing FAA TRACON SMA TRACON (SMA)
06:38AM 35.1928 -81.1014 309° West 241 277 6,200 1,200 Climbing FAA TRACON SMA TRACON (SMA)
06:39AM 35.2058 -81.1231 306° West 252 290 6,700 1,320 Climbing FAA TRACON SMA TRACON (SMA)
06:39AM 35.2125 -81.1358 303° West 257 296 7,000 2,040 Climbing Atlanta Center
06:40AM 35.2719 -81.1794 329° Northwest 283 326 9,300 1,860 Climbing Atlanta Center
06:41AM 35.3439 -81.1336 27° Northeast 272 313 10,800 1,260 Climbing Atlanta Center
06:42AM 35.4258 -81.0797 28° Northeast 305 351 11,900 960 Climbing Atlanta Center
06:43AM 35.5100 -81.0231 29° Northeast 333 383 12,800 960 Climbing Atlanta Center
06:44AM 35.6022 -81.0350 354° North 331 381 13,900 1,020 Climbing Atlanta Center
06:45AM 35.6892 -81.0958 330° Northwest 325 374 14,900 960 Climbing Atlanta Center
06:46AM 35.7803 -81.1539 333° Northwest 346 398 15,900 1,020 Climbing Atlanta Center
06:47AM 35.8672 -81.2150 330° Northwest 362 417 17,000 1,020 Climbing Atlanta Center
06:48AM 35.9503 -81.2889 324° Northwest 362 417 18,000 840 Climbing Atlanta Center
06:49AM 36.0292 -81.3711 320° Northwest 367 422 18,700 840 Climbing Atlanta Center
06:50AM 36.1061 -81.4558 318° Northwest 367 422 19,700 1,020 Climbing Atlanta Center
06:51AM 36.1831 -81.5383 319° Northwest 372 428 20,800 1,020 Climbing Atlanta Center
06:52AM 36.2639 -81.6233 320° Northwest 372 428 21,800 960 Climbing Atlanta Center
06:53AM 36.3492 -81.7161 319° Northwest 372 428 22,800 1,200 Climbing Atlanta Center
06:55AM 36.4817 -81.8597 319° Northwest 368 423 25,100 1,320 Climbing Indianapolis Center
06:56AM 36.5556 -81.9411 319° Northwest 357 411 26,500 1,200 Climbing Indianapolis Center
06:57AM 36.6281 -82.0200 319° Northwest 349 402 27,600 1,020 Climbing Indianapolis Center
06:58AM 36.7008 -82.0997 319° Northwest 348 400 28,600 960 Climbing Indianapolis Center
06:59AM 36.7733 -82.1772 319° Northwest 346 398 29,600 660 Climbing Indianapolis Center
07:00AM 36.8475 -82.2589 319° Northwest 353 406 30,000 180 Climbing Indianapolis Center
07:01AM 36.9247 -82.3447 318° Northwest 367 422 30,000  Level Indianapolis Center
07:02AM 37.0075 -82.4361 319° Northwest 393 452 30,000  Level Indianapolis Center
07:03AM 37.0919 -82.5300 318° Northwest 405 466 30,000  Level Indianapolis Center
07:04AM 37.1783 -82.6253 319° Northwest 415 478 30,000  Level Indianapolis Center
07:05AM 37.2647 -82.7219 318° Northwest 418 481 30,000  Level Indianapolis Center
07:06AM 37.3508 -82.8181 318° Northwest 417 480 30,000  Level Indianapolis Center
07:07AM 37.4500 -82.9300 318° Northwest 413 475 30,000  Level Indianapolis Center
07:08AM 37.5356 -83.0269 318° Northwest 414 476 30,000  Level Indianapolis Center
07:09AM 37.6219 -83.1239 318° Northwest 416 479 30,000  Level Indianapolis Center
07:10AM 37.7061 -83.2200 318° Northwest 410 472 30,000  Level Indianapolis Center
07:11AM 37.7822 -83.3244 313° West 409 471 30,000  Level Indianapolis Center
07:12AM 37.8100 -83.4558 285° West 390 449 30,000  Level Indianapolis Center
07:13AM 37.8394 -83.5892 286° West 392 451 30,000  Level Indianapolis Center
07:14AM 37.8689 -83.7214 286° West 392 451 30,000  Level Indianapolis Center
07:15AM 37.8989 -83.8561 286° West 396 456 30,000  Level Indianapolis Center
07:16AM 37.9283 -83.9878 286° West 392 451 30,000  Level Indianapolis Center
07:17AM 37.9583 -84.1214 286° West 394 453 30,000  Level Indianapolis Center
07:18AM 37.9886 -84.2550 286° West 395 455 30,000  Level Indianapolis Center
07:19AM 38.0389 -84.3772 298° West 400 460 30,000  Level Indianapolis Center
07:20AM 38.1428 -84.4489 332° Northwest 424 488 30,000  Level Indianapolis Center
07:21AM 38.2553 -84.5042 339° North 431 496 30,000  Level Indianapolis Center
07:22AM 38.3675 -84.5592 339° North 430 495 30,000  Level Indianapolis Center
07:23AM 38.4978 -84.6264 338° Northwest 429 494 30,000  Level Indianapolis Center
07:24AM 38.6086 -84.6831 338° Northwest 426 490 30,000  Level Indianapolis Center
07:25AM 38.7119 -84.7361 338° Northwest 431 496 30,000  Level Indianapolis Center
07:26AM 38.8228 -84.7947 338° Northwest 429 494 30,000  Level Indianapolis Center
07:27AM 38.9322 -84.8500 339° North 433 498 30,000  Level Indianapolis Center
07:28AM 39.0483 -84.9117 338° Northwest 433 498 30,000  Level Indianapolis Center
07:29AM 39.1564 -84.9758 335° Northwest 424 488 30,000  Level Indianapolis Center
07:30AM 39.2636 -85.0433 334° Northwest 425 489 30,000 -900 Level Indianapolis Center
07:31AM 39.3719 -85.1108 334° Northwest 427 491 28,200 -1,020 Descending Indianapolis Center
07:32AM 39.4853 -85.1714 338° Northwest 436 502 28,000 -120 Descending Indianapolis Center
07:33AM 39.5983 -85.2269 339° North 431 496 28,000  Level Indianapolis Center
07:34AM 39.7311 -85.2944 339° North 435 501 28,000 -600 Level Indianapolis Center
07:35AM 39.8461 -85.3517 339° North 439 505 26,900 -1,020 Descending Indianapolis Center
07:36AM 39.9619 -85.4094 339° North 443 510 26,000 -480 Descending Indianapolis Center
07:37AM 40.0725 -85.4658 339° North 429 494 26,000  Level Indianapolis Center
07:38AM 40.1653 -85.5108 340° North 426 490 26,000  Level Chicago Center
07:39AM 40.2778 -85.5675 339° North 430 495 26,000 -660 Level Chicago Center
07:40AM 40.3914 -85.6256 339° North 433 498 24,700 -1,020 Descending Chicago Center
07:41AM 40.4978 -85.6800 339° North 417 480 24,000 -600 Descending Chicago Center
07:42AM 40.6094 -85.7297 341° North 420 483 23,600 -1,020 Descending Chicago Center
07:43AM 40.7297 -85.7831 341° North 396 456 22,000 -840 Descending Chicago Center
07:44AM 40.8325 -85.8300 341° North 391 450 22,000  Level Chicago Center
07:45AM 40.9392 -85.8772 342° North 402 463 22,000  Level Chicago Center
07:46AM 41.0453 -85.9269 341° North 405 466 22,000  Level Chicago Center
07:47AM 41.1436 -85.9886 335° Northwest 394 453 22,000 -240 Level Chicago Center
07:48AM 41.2125 -86.0928 311° West 375 432 21,600 -1,200 Descending Chicago Center
07:49AM 41.2767 -86.1933 310° West 359 413 19,600 -2,040 Descending Chicago Center
07:50AM 41.3394 -86.2914 310° West 349 402 17,500 -2,040 Descending Chicago Center
07:51AM 41.4000 -86.3872 310° West 338 389 15,500 -2,040 Descending Chicago Center
07:52AM 41.4597 -86.4814 310° West 334 384 13,400 -1,680 Descending Chicago Center
07:53AM 41.5172 -86.5722 310° West 323 372 12,100 -660 Descending Chicago Center
07:54AM 41.5756 -86.6653 310° West 326 375 12,100 -60 Level Chicago Center
07:55AM 41.6386 -86.7636 311° West 325 374 12,000  Descending Chicago Center
07:56AM 41.7264 -86.8017 342° North 350 403 12,100  Climbing Chicago Center
07:57AM 41.8214 -86.8208 351° North 348 400 12,100  Level Chicago Center
07:58AM 41.9019 -86.8694 336° Northwest 329 379 12,100 -60 Level Chicago Center
07:59AM 41.9736 -86.9683 314° West 308 354 12,000 -840 Descending Chicago Center
08:00AM 41.9869 -87.0603 281° West 268 308 10,400 -1,380 Descending Chicago Center
08:01AM 41.9789 -87.1472 263° West 237 273 9,300 -1,080 Descending Chicago Center
08:02AM 41.9858 -87.2358 276° West 239 275 8,300 -1,020 Descending Chicago Center
08:03AM 41.9803 -87.3214 265° West 232 267 7,300 -780 Descending Chicago Center
08:04AM 41.9833 -87.4000 273° West 231 266 7,000 -300 Descending Chicago TRACON
08:05AM 41.9833 -87.4833 270° West 228 262 6,800 -720 Descending Chicago TRACON
08:06AM 41.9833 -87.5500 270° West 214 246 5,700 -1,140 Descending Chicago TRACON
08:07AM 41.9833 -87.6333 270° West 170 196 4,600 -1,020 Descending Chicago TRACON
08:08AM 41.9833 -87.6833 270° West 173 199 3,700 -960 Descending Chicago TRACON
08:09AM 41.9833 -87.7500 270° West 168 193 2,800 -960 Descending Chicago TRACON
08:10AM 41.9833 -87.8167 270° West 153 176 1,800 -780 Descending Chicago TRACON
08:11AM 41.9833 -87.8500 270° West 119 137 1,200 -600 Descending Chicago TRACON
08:14AM 41.9667 -87.9000 270° West  Level FlightAware Approximate